sensor_id;sensor_type;location;lat;lon;timestamp;pressure;altitude;pressure_sealevel;temperature;humidity
64340;BME280;63709;53.258;-8.814;2024-02-26T00:02:04;101354.31;;;8.55;100.00
64340;BME280;63709;53.258;-8.814;2024-02-26T00:04:29;101362.41;;;8.54;100.00
64340;BME280;63709;53.258;-8.814;2024-02-26T00:06:54;101365.75;;;8.57;100.00
64340;BME280;63709;53.258;-8.814;2024-02-26T00:09:21;101379.78;;;8.59;100.00
64340;BME280;63709;53.258;-8.814;2024-02-26T00:11:46;101375.53;;;8.57;100.00
64340;BME280;63709;53.258;-8.814;2024-02-26T00:14:11;101385.53;;;8.67;100.00
64340;BME280;63709;53.258;-8.814;2024-02-26T00:16:39;101391.50;;;8.57;100.00
64340;BME280;63709;53.258;-8.814;2024-02-26T00:19:04;101387.50;;;8.64;100.00
64340;BME280;63709;53.258;-8.814;2024-02-26T00:21:30;101389.84;;;8.54;100.00
64340;BME280;63709;53.258;-8.814;2024-02-26T00:23:55;101388.16;;;8.53;100.00
64340;BME280;63709;53.258;-8.814;2024-02-26T00:26:20;101388.84;;;8.57;100.00
64340;BME280;63709;53.258;-8.814;2024-02-26T00:28:45;101390.13;;;8.50;100.00
64340;BME280;63709;53.258;-8.814;2024-02-26T00:31:11;101393.63;;;8.50;100.00
64340;BME280;63709;53.258;-8.814;2024-02-26T00:33:36;101394.38;;;8.52;100.00
64340;BME280;63709;53.258;-8.814;2024-02-26T00:36:02;101395.16;;;8.54;100.00
64340;BME280;63709;53.258;-8.814;2024-02-26T00:38:27;101404.78;;;8.57;100.00
64340;BME280;63709;53.258;-8.814;2024-02-26T00:40:52;101411.03;;;8.56;100.00
64340;BME280;63709;53.258;-8.814;2024-02-26T00:43:18;101406.78;;;8.53;100.00
64340;BME280;63709;53.258;-8.814;2024-02-26T00:45:43;101418.44;;;8.51;100.00
64340;BME280;63709;53.258;-8.814;2024-02-26T00:48:08;101428.91;;;8.54;100.00
64340;BME280;63709;53.258;-8.814;2024-02-26T00:50:34;101440.13;;;8.59;100.00
64340;BME280;63709;53.258;-8.814;2024-02-26T00:52:59;101443.06;;;8.54;100.00
64340;BME280;63709;53.258;-8.814;2024-02-26T00:55:25;101448.22;;;8.57;100.00
64340;BME280;63709;53.258;-8.814;2024-02-26T00:57:50;101450.72;;;8.60;100.00
64340;BME280;63709;53.258;-8.814;2024-02-26T01:00:15;101449.41;;;8.52;100.00
64340;BME280;63709;53.258;-8.814;2024-02-26T01:02:41;101453.09;;;8.49;100.00
64340;BME280;63709;53.258;-8.814;2024-02-26T01:05:11;101459.97;;;8.53;100.00
64340;BME280;63709;53.258;-8.814;2024-02-26T01:07:37;101465.31;;;8.53;100.00
64340;BME280;63709;53.258;-8.814;2024-02-26T01:10:02;101474.56;;;8.46;100.00
64340;BME280;63709;53.258;-8.814;2024-02-26T01:12:28;101472.66;;;8.48;100.00
64340;BME280;63709;53.258;-8.814;2024-02-26T01:14:53;101490.13;;;8.36;100.00
64340;BME280;63709;53.258;-8.814;2024-02-26T01:17:18;101482.63;;;8.44;100.00
64340;BME280;63709;53.258;-8.814;2024-02-26T01:19:44;101479.09;;;8.44;100.00
64340;BME280;63709;53.258;-8.814;2024-02-26T01:22:09;101491.00;;;8.37;100.00
64340;BME280;63709;53.258;-8.814;2024-02-26T01:24:34;101493.00;;;8.49;100.00
64340;BME280;63709;53.258;-8.814;2024-02-26T01:27:00;101494.63;;;8.67;100.00
64340;BME280;63709;53.258;-8.814;2024-02-26T01:29:25;101493.94;;;8.64;100.00
64340;BME280;63709;53.258;-8.814;2024-02-26T01:31:50;101502.34;;;8.40;100.00
64340;BME280;63709;53.258;-8.814;2024-02-26T01:34:16;101504.00;;;8.59;100.00
64340;BME280;63709;53.258;-8.814;2024-02-26T01:36:43;101504.53;;;8.50;100.00
64340;BME280;63709;53.258;-8.814;2024-02-26T01:39:08;101513.88;;;8.57;100.00
64340;BME280;63709;53.258;-8.814;2024-02-26T01:41:36;101518.53;;;8.53;100.00
64340;BME280;63709;53.258;-8.814;2024-02-26T01:44:01;101531.41;;;8.61;100.00
64340;BME280;63709;53.258;-8.814;2024-02-26T01:46:27;101524.72;;;8.36;100.00
64340;BME280;63709;53.258;-8.814;2024-02-26T01:48:53;101543.03;;;8.42;100.00
64340;BME280;63709;53.258;-8.814;2024-02-26T01:51:19;101549.91;;;8.46;100.00
64340;BME280;63709;53.258;-8.814;2024-02-26T01:53:44;101564.75;;;8.51;100.00
64340;BME280;63709;53.258;-8.814;2024-02-26T01:56:10;101577.97;;;8.52;100.00
64340;BME280;63709;53.258;-8.814;2024-02-26T01:58:36;101582.81;;;8.61;100.00
64340;BME280;63709;53.258;-8.814;2024-02-26T02:01:01;101582.59;;;8.48;100.00
64340;BME280;63709;53.258;-8.814;2024-02-26T02:03:27;101590.94;;;8.58;100.00
64340;BME280;63709;53.258;-8.814;2024-02-26T02:05:53;101593.88;;;8.54;100.00
64340;BME280;63709;53.258;-8.814;2024-02-26T02:08:19;101604.72;;;8.49;100.00
64340;BME280;63709;53.258;-8.814;2024-02-26T02:10:44;101616.41;;;8.46;100.00
64340;BME280;63709;53.258;-8.814;2024-02-26T02:13:12;101618.66;;;8.54;100.00
64340;BME280;63709;53.258;-8.814;2024-02-26T02:15:38;101632.91;;;8.36;100.00
64340;BME280;63709;53.258;-8.814;2024-02-26T02:18:03;101632.44;;;8.45;100.00
64340;BME280;63709;53.258;-8.814;2024-02-26T02:20:35;101642.88;;;8.50;100.00
64340;BME280;63709;53.258;-8.814;2024-02-26T02:23:00;101647.72;;;8.41;100.00
64340;BME280;63709;53.258;-8.814;2024-02-26T02:25:25;101652.63;;;8.32;100.00
64340;BME280;63709;53.258;-8.814;2024-02-26T02:27:51;101646.28;;;8.34;100.00
64340;BME280;63709;53.258;-8.814;2024-02-26T02:30:18;101654.94;;;8.39;100.00
64340;BME280;63709;53.258;-8.814;2024-02-26T02:32:43;101661.97;;;8.40;100.00
64340;BME280;63709;53.258;-8.814;2024-02-26T02:35:09;101666.34;;;8.41;100.00
64340;BME280;63709;53.258;-8.814;2024-02-26T02:37:34;101681.75;;;8.35;100.00
64340;BME280;63709;53.258;-8.814;2024-02-26T02:39:59;101664.72;;;8.39;100.00
64340;BME280;63709;53.258;-8.814;2024-02-26T02:42:25;101676.22;;;8.39;100.00
64340;BME280;63709;53.258;-8.814;2024-02-26T02:44:50;101675.97;;;8.44;100.00
64340;BME280;63709;53.258;-8.814;2024-02-26T02:47:16;101680.34;;;8.45;100.00
64340;BME280;63709;53.258;-8.814;2024-02-26T02:49:41;101687.06;;;8.35;100.00
64340;BME280;63709;53.258;-8.814;2024-02-26T02:52:06;101688.84;;;8.34;100.00
64340;BME280;63709;53.258;-8.814;2024-02-26T02:54:32;101697.34;;;8.42;100.00
64340;BME280;63709;53.258;-8.814;2024-02-26T02:56:57;101703.75;;;8.38;100.00
64340;BME280;63709;53.258;-8.814;2024-02-26T02:59:23;101715.84;;;8.27;100.00
64340;BME280;63709;53.258;-8.814;2024-02-26T03:01:48;101711.66;;;8.40;100.00
64340;BME280;63709;53.258;-8.814;2024-02-26T03:04:13;101712.78;;;8.34;100.00
64340;BME280;63709;53.258;-8.814;2024-02-26T03:06:39;101726.56;;;8.25;100.00
64340;BME280;63709;53.258;-8.814;2024-02-26T03:09:04;101723.66;;;8.30;100.00
64340;BME280;63709;53.258;-8.814;2024-02-26T03:11:29;101732.34;;;8.16;100.00
64340;BME280;63709;53.258;-8.814;2024-02-26T03:13:54;101743.69;;;8.19;100.00
64340;BME280;63709;53.258;-8.814;2024-02-26T03:16:20;101746.41;;;8.18;100.00
64340;BME280;63709;53.258;-8.814;2024-02-26T03:18:45;101750.03;;;8.17;100.00
64340;BME280;63709;53.258;-8.814;2024-02-26T03:21:10;101752.59;;;8.18;100.00
64340;BME280;63709;53.258;-8.814;2024-02-26T03:23:36;101756.19;;;8.17;100.00
64340;BME280;63709;53.258;-8.814;2024-02-26T03:26:04;101767.53;;;8.21;100.00
64340;BME280;63709;53.258;-8.814;2024-02-26T03:28:30;101768.63;;;8.17;100.00
64340;BME280;63709;53.258;-8.814;2024-02-26T03:30:58;101786.44;;;7.97;100.00
64340;BME280;63709;53.258;-8.814;2024-02-26T03:33:23;101790.63;;;7.84;100.00
64340;BME280;63709;53.258;-8.814;2024-02-26T03:35:49;101800.50;;;7.99;100.00
64340;BME280;63709;53.258;-8.814;2024-02-26T03:38:14;101799.50;;;8.02;100.00
64340;BME280;63709;53.258;-8.814;2024-02-26T03:40:39;101803.81;;;8.05;100.00
64340;BME280;63709;53.258;-8.814;2024-02-26T03:43:04;101807.19;;;7.89;100.00
64340;BME280;63709;53.258;-8.814;2024-02-26T03:45:32;101812.59;;;7.69;100.00
64340;BME280;63709;53.258;-8.814;2024-02-26T03:47:57;101810.28;;;7.42;100.00
64340;BME280;63709;53.258;-8.814;2024-02-26T03:50:22;101823.34;;;7.28;100.00
64340;BME280;63709;53.258;-8.814;2024-02-26T03:52:48;101827.97;;;7.23;100.00
64340;BME280;63709;53.258;-8.814;2024-02-26T03:55:13;101830.75;;;7.01;100.00
64340;BME280;63709;53.258;-8.814;2024-02-26T03:57:38;101835.97;;;6.82;100.00
64340;BME280;63709;53.258;-8.814;2024-02-26T04:00:04;101838.34;;;6.88;100.00
64340;BME280;63709;53.258;-8.814;2024-02-26T04:02:29;101849.50;;;6.76;100.00
64340;BME280;63709;53.258;-8.814;2024-02-26T04:04:55;101855.91;;;6.70;100.00
64340;BME280;63709;53.258;-8.814;2024-02-26T04:07:20;101867.88;;;6.81;100.00
64340;BME280;63709;53.258;-8.814;2024-02-26T04:09:45;101869.78;;;6.57;100.00
64340;BME280;63709;53.258;-8.814;2024-02-26T04:12:11;101872.69;;;6.50;100.00
64340;BME280;63709;53.258;-8.814;2024-02-26T04:14:36;101886.34;;;6.62;100.00
64340;BME280;63709;53.258;-8.814;2024-02-26T04:17:02;101892.41;;;6.43;100.00
64340;BME280;63709;53.258;-8.814;2024-02-26T04:19:27;101891.78;;;6.59;100.00
64340;BME280;63709;53.258;-8.814;2024-02-26T04:21:52;101900.69;;;6.58;100.00
64340;BME280;63709;53.258;-8.814;2024-02-26T04:24:17;101907.16;;;6.50;100.00
64340;BME280;63709;53.258;-8.814;2024-02-26T04:26:43;101911.59;;;6.50;100.00
64340;BME280;63709;53.258;-8.814;2024-02-26T04:29:08;101908.97;;;6.26;100.00
64340;BME280;63709;53.258;-8.814;2024-02-26T04:31:33;101914.91;;;6.33;100.00
64340;BME280;63709;53.258;-8.814;2024-02-26T04:33:59;101922.88;;;6.33;100.00
64340;BME280;63709;53.258;-8.814;2024-02-26T04:36:24;101928.44;;;6.27;100.00
64340;BME280;63709;53.258;-8.814;2024-02-26T04:38:50;101932.56;;;6.34;100.00
64340;BME280;63709;53.258;-8.814;2024-02-26T04:41:16;101931.88;;;6.29;100.00
64340;BME280;63709;53.258;-8.814;2024-02-26T04:43:41;101934.31;;;6.12;100.00
64340;BME280;63709;53.258;-8.814;2024-02-26T04:46:07;101934.47;;;6.30;100.00
64340;BME280;63709;53.258;-8.814;2024-02-26T04:48:33;101945.25;;;6.26;100.00
64340;BME280;63709;53.258;-8.814;2024-02-26T04:50:59;101944.75;;;5.93;100.00
64340;BME280;63709;53.258;-8.814;2024-02-26T04:53:24;101947.56;;;6.12;100.00
64340;BME280;63709;53.258;-8.814;2024-02-26T04:55:49;101955.50;;;6.12;100.00
64340;BME280;63709;53.258;-8.814;2024-02-26T04:58:15;101966.69;;;6.20;100.00
64340;BME280;63709;53.258;-8.814;2024-02-26T05:00:40;101968.59;;;6.16;100.00
64340;BME280;63709;53.258;-8.814;2024-02-26T05:03:05;101979.44;;;6.10;100.00
64340;BME280;63709;53.258;-8.814;2024-02-26T05:05:31;101983.28;;;6.25;100.00
64340;BME280;63709;53.258;-8.814;2024-02-26T05:07:56;101988.19;;;6.36;100.00
64340;BME280;63709;53.258;-8.814;2024-02-26T05:10:21;101992.22;;;6.46;100.00
64340;BME280;63709;53.258;-8.814;2024-02-26T05:12:47;101996.09;;;6.59;100.00
64340;BME280;63709;53.258;-8.814;2024-02-26T05:15:13;102001.72;;;6.73;100.00
64340;BME280;63709;53.258;-8.814;2024-02-26T05:17:43;101997.16;;;6.77;100.00
64340;BME280;63709;53.258;-8.814;2024-02-26T05:20:08;102000.66;;;6.77;100.00
64340;BME280;63709;53.258;-8.814;2024-02-26T05:22:33;102001.09;;;6.89;100.00
64340;BME280;63709;53.258;-8.814;2024-02-26T05:24:59;102007.84;;;6.97;100.00
64340;BME280;63709;53.258;-8.814;2024-02-26T05:27:24;102013.00;;;7.00;100.00
64340;BME280;63709;53.258;-8.814;2024-02-26T05:29:49;102016.34;;;7.06;100.00
64340;BME280;63709;53.258;-8.814;2024-02-26T05:32:16;102027.00;;;7.04;100.00
64340;BME280;63709;53.258;-8.814;2024-02-26T05:34:42;102030.25;;;7.12;100.00
64340;BME280;63709;53.258;-8.814;2024-02-26T05:37:07;102023.81;;;7.18;100.00
64340;BME280;63709;53.258;-8.814;2024-02-26T05:39:32;102028.75;;;7.27;100.00
64340;BME280;63709;53.258;-8.814;2024-02-26T05:41:58;102032.47;;;7.43;100.00
64340;BME280;63709;53.258;-8.814;2024-02-26T05:44:25;102028.38;;;7.57;100.00
64340;BME280;63709;53.258;-8.814;2024-02-26T05:46:51;102040.03;;;7.52;100.00
64340;BME280;63709;53.258;-8.814;2024-02-26T05:49:16;102036.06;;;7.63;100.00
64340;BME280;63709;53.258;-8.814;2024-02-26T05:51:41;102039.22;;;7.72;100.00
64340;BME280;63709;53.258;-8.814;2024-02-26T05:54:07;102045.38;;;7.73;100.00
64340;BME280;63709;53.258;-8.814;2024-02-26T05:56:33;102045.38;;;7.73;100.00
64340;BME280;63709;53.258;-8.814;2024-02-26T05:58:58;102046.03;;;7.58;100.00
64340;BME280;63709;53.258;-8.814;2024-02-26T06:01:23;102044.06;;;7.83;100.00
64340;BME280;63709;53.258;-8.814;2024-02-26T06:03:50;102054.47;;;7.88;100.00
64340;BME280;63709;53.258;-8.814;2024-02-26T06:06:16;102056.88;;;7.94;100.00
64340;BME280;63709;53.258;-8.814;2024-02-26T06:08:41;102055.88;;;7.96;100.00
64340;BME280;63709;53.258;-8.814;2024-02-26T06:11:07;102053.16;;;7.98;100.00
64340;BME280;63709;53.258;-8.814;2024-02-26T06:13:33;102053.16;;;7.98;100.00
64340;BME280;63709;53.258;-8.814;2024-02-26T06:15:58;102057.75;;;7.94;100.00
64340;BME280;63709;53.258;-8.814;2024-02-26T06:18:23;102062.47;;;7.88;100.00
64340;BME280;63709;53.258;-8.814;2024-02-26T06:20:49;102066.63;;;7.93;100.00
64340;BME280;63709;53.258;-8.814;2024-02-26T06:23:14;102079.00;;;7.94;100.00
64340;BME280;63709;53.258;-8.814;2024-02-26T06:25:39;102082.09;;;8.04;100.00
64340;BME280;63709;53.258;-8.814;2024-02-26T06:28:06;102087.38;;;8.06;100.00
64340;BME280;63709;53.258;-8.814;2024-02-26T06:30:31;102091.66;;;8.08;100.00
64340;BME280;63709;53.258;-8.814;2024-02-26T06:32:57;102096.13;;;8.08;100.00
64340;BME280;63709;53.258;-8.814;2024-02-26T06:35:22;102100.69;;;8.06;100.00
64340;BME280;63709;53.258;-8.814;2024-02-26T06:37:47;102112.03;;;7.89;100.00
64340;BME280;63709;53.258;-8.814;2024-02-26T06:40:15;102115.41;;;7.72;100.00
64340;BME280;63709;53.258;-8.814;2024-02-26T06:42:40;102120.84;;;7.69;100.00
64340;BME280;63709;53.258;-8.814;2024-02-26T06:45:06;102129.59;;;7.50;100.00
64340;BME280;63709;53.258;-8.814;2024-02-26T06:47:32;102135.09;;;7.24;100.00
64340;BME280;63709;53.258;-8.814;2024-02-26T06:49:57;102149.78;;;7.33;100.00
64340;BME280;63709;53.258;-8.814;2024-02-26T06:52:23;102152.59;;;7.06;100.00
64340;BME280;63709;53.258;-8.814;2024-02-26T06:54:50;102154.50;;;7.02;100.00
64340;BME280;63709;53.258;-8.814;2024-02-26T06:57:16;102165.34;;;6.96;100.00
64340;BME280;63709;53.258;-8.814;2024-02-26T06:59:41;102162.97;;;6.90;100.00
64340;BME280;63709;53.258;-8.814;2024-02-26T07:02:10;102173.03;;;6.81;100.00
64340;BME280;63709;53.258;-8.814;2024-02-26T07:04:36;102169.16;;;6.89;100.00
64340;BME280;63709;53.258;-8.814;2024-02-26T07:07:02;102172.19;;;6.80;100.00
64340;BME280;63709;53.258;-8.814;2024-02-26T07:09:27;102173.50;;;6.68;100.00
64340;BME280;63709;53.258;-8.814;2024-02-26T07:11:52;102177.47;;;6.57;100.00
64340;BME280;63709;53.258;-8.814;2024-02-26T07:14:18;102189.63;;;6.62;100.00
64340;BME280;63709;53.258;-8.814;2024-02-26T07:16:43;102196.38;;;6.71;100.00
64340;BME280;63709;53.258;-8.814;2024-02-26T07:19:08;102204.97;;;6.54;100.00
64340;BME280;63709;53.258;-8.814;2024-02-26T07:21:33;102197.28;;;6.46;100.00
64340;BME280;63709;53.258;-8.814;2024-02-26T07:23:59;102224.19;;;6.61;100.00
64340;BME280;63709;53.258;-8.814;2024-02-26T07:26:24;102220.91;;;6.52;100.00
64340;BME280;63709;53.258;-8.814;2024-02-26T07:28:51;102227.97;;;6.53;100.00
64340;BME280;63709;53.258;-8.814;2024-02-26T07:31:19;102224.13;;;6.62;100.00
64340;BME280;63709;53.258;-8.814;2024-02-26T07:33:45;102235.00;;;6.54;100.00
64340;BME280;63709;53.258;-8.814;2024-02-26T07:36:10;102231.16;;;6.63;100.00
64340;BME280;63709;53.258;-8.814;2024-02-26T07:38:36;102234.63;;;6.40;100.00
64340;BME280;63709;53.258;-8.814;2024-02-26T07:41:02;102240.91;;;6.63;100.00
64340;BME280;63709;53.258;-8.814;2024-02-26T07:43:27;102249.63;;;6.66;100.00
64340;BME280;63709;53.258;-8.814;2024-02-26T07:45:52;102258.06;;;6.52;100.00
64340;BME280;63709;53.258;-8.814;2024-02-26T07:48:18;102257.31;;;6.49;100.00
64340;BME280;63709;53.258;-8.814;2024-02-26T07:50:43;102262.03;;;6.14;100.00
64340;BME280;63709;53.258;-8.814;2024-02-26T07:53:08;102273.91;;;6.02;100.00
64340;BME280;63709;53.258;-8.814;2024-02-26T07:55:34;102279.00;;;6.09;100.00
64340;BME280;63709;53.258;-8.814;2024-02-26T07:57:59;102284.41;;;6.05;100.00
64340;BME280;63709;53.258;-8.814;2024-02-26T08:00:25;102290.91;;;5.95;100.00
64340;BME280;63709;53.258;-8.814;2024-02-26T08:02:50;102290.00;;;5.96;100.00
64340;BME280;63709;53.258;-8.814;2024-02-26T08:05:15;102301.19;;;6.06;100.00
64340;BME280;63709;53.258;-8.814;2024-02-26T08:07:41;102296.97;;;5.99;100.00
64340;BME280;63709;53.258;-8.814;2024-02-26T08:10:06;102305.16;;;5.91;100.00
64340;BME280;63709;53.258;-8.814;2024-02-26T08:12:32;102311.84;;;6.04;100.00
64340;BME280;63709;53.258;-8.814;2024-02-26T08:14:57;102309.91;;;6.10;100.00
64340;BME280;63709;53.258;-8.814;2024-02-26T08:17:25;102305.78;;;6.27;100.00
64340;BME280;63709;53.258;-8.814;2024-02-26T08:19:50;102317.25;;;6.28;100.00
64340;BME280;63709;53.258;-8.814;2024-02-26T08:22:16;102323.66;;;6.47;100.00
64340;BME280;63709;53.258;-8.814;2024-02-26T08:24:42;102324.66;;;6.70;100.00
64340;BME280;63709;53.258;-8.814;2024-02-26T08:27:08;102332.53;;;6.73;100.00
64340;BME280;63709;53.258;-8.814;2024-02-26T08:29:33;102338.16;;;6.89;100.00
64340;BME280;63709;53.258;-8.814;2024-02-26T08:31:58;102339.50;;;7.00;100.00
64340;BME280;63709;53.258;-8.814;2024-02-26T08:34:24;102342.63;;;7.13;100.00
64340;BME280;63709;53.258;-8.814;2024-02-26T08:36:50;102353.72;;;7.24;100.00
64340;BME280;63709;53.258;-8.814;2024-02-26T08:39:16;102341.69;;;7.38;100.00
64340;BME280;63709;53.258;-8.814;2024-02-26T08:41:42;102344.78;;;7.50;100.00
64340;BME280;63709;53.258;-8.814;2024-02-26T08:44:07;102349.19;;;7.75;100.00
64340;BME280;63709;53.258;-8.814;2024-02-26T08:46:33;102346.56;;;7.73;100.00
64340;BME280;63709;53.258;-8.814;2024-02-26T08:48:58;102344.34;;;7.85;100.00
64340;BME280;63709;53.258;-8.814;2024-02-26T08:51:23;102343.72;;;8.02;100.00
64340;BME280;63709;53.258;-8.814;2024-02-26T08:53:49;102343.31;;;8.11;100.00
64340;BME280;63709;53.258;-8.814;2024-02-26T08:56:16;102341.97;;;8.22;100.00
64340;BME280;63709;53.258;-8.814;2024-02-26T08:58:44;102339.81;;;8.32;100.00
64340;BME280;63709;53.258;-8.814;2024-02-26T09:01:09;102342.66;;;8.50;100.00
64340;BME280;63709;53.258;-8.814;2024-02-26T09:03:34;102332.13;;;8.68;100.00
64340;BME280;63709;53.258;-8.814;2024-02-26T09:06:00;102337.75;;;8.81;100.00
64340;BME280;63709;53.258;-8.814;2024-02-26T09:08:25;102342.28;;;9.00;100.00
64340;BME280;63709;53.258;-8.814;2024-02-26T09:10:50;102336.22;;;9.16;100.00
64340;BME280;63709;53.258;-8.814;2024-02-26T09:13:16;102332.88;;;9.32;100.00
64340;BME280;63709;53.258;-8.814;2024-02-26T09:15:41;102316.91;;;9.51;100.00
64340;BME280;63709;53.258;-8.814;2024-02-26T09:18:06;102332.31;;;9.63;100.00
64340;BME280;63709;53.258;-8.814;2024-02-26T09:20:31;102329.66;;;9.63;100.00
64340;BME280;63709;53.258;-8.814;2024-02-26T09:22:57;102336.88;;;9.61;100.00
64340;BME280;63709;53.258;-8.814;2024-02-26T09:25:22;102329.88;;;9.77;100.00
64340;BME280;63709;53.258;-8.814;2024-02-26T09:27:47;102315.75;;;9.94;100.00
64340;BME280;63709;53.258;-8.814;2024-02-26T09:30:13;102313.56;;;10.02;100.00
64340;BME280;63709;53.258;-8.814;2024-02-26T09:32:39;102316.13;;;10.04;100.00
64340;BME280;63709;53.258;-8.814;2024-02-26T09:35:05;102321.19;;;10.10;100.00
64340;BME280;63709;53.258;-8.814;2024-02-26T09:37:30;102332.72;;;10.29;100.00
64340;BME280;63709;53.258;-8.814;2024-02-26T09:39:56;102340.03;;;10.43;100.00
64340;BME280;63709;53.258;-8.814;2024-02-26T09:42:21;102342.00;;;10.39;100.00
64340;BME280;63709;53.258;-8.814;2024-02-26T09:44:49;102350.56;;;10.63;100.00
64340;BME280;63709;53.258;-8.814;2024-02-26T09:47:16;102362.75;;;10.69;100.00
64340;BME280;63709;53.258;-8.814;2024-02-26T09:49:42;102360.25;;;10.83;100.00
64340;BME280;63709;53.258;-8.814;2024-02-26T09:52:08;102374.63;;;10.98;100.00
64340;BME280;63709;53.258;-8.814;2024-02-26T09:54:34;102386.00;;;11.19;100.00
64340;BME280;63709;53.258;-8.814;2024-02-26T09:57:00;102394.84;;;11.37;100.00
64340;BME280;63709;53.258;-8.814;2024-02-26T09:59:27;102396.97;;;11.48;100.00
64340;BME280;63709;53.258;-8.814;2024-02-26T10:01:54;102398.75;;;11.65;100.00
64340;BME280;63709;53.258;-8.814;2024-02-26T10:04:20;102398.56;;;11.68;100.00
64340;BME280;63709;53.258;-8.814;2024-02-26T10:06:46;102391.16;;;11.73;100.00
64340;BME280;63709;53.258;-8.814;2024-02-26T10:09:12;102397.69;;;11.67;100.00
64340;BME280;63709;53.258;-8.814;2024-02-26T10:11:37;102403.19;;;11.64;100.00
64340;BME280;63709;53.258;-8.814;2024-02-26T10:14:03;102400.94;;;11.90;100.00
64340;BME280;63709;53.258;-8.814;2024-02-26T10:16:28;102412.78;;;11.85;100.00
64340;BME280;63709;53.258;-8.814;2024-02-26T10:18:54;102406.56;;;11.85;100.00
64340;BME280;63709;53.258;-8.814;2024-02-26T10:21:20;102401.47;;;11.96;100.00
64340;BME280;63709;53.258;-8.814;2024-02-26T10:23:46;102406.16;;;12.08;100.00
64340;BME280;63709;53.258;-8.814;2024-02-26T10:26:12;102411.69;;;12.05;100.00
64340;BME280;63709;53.258;-8.814;2024-02-26T10:28:38;102403.66;;;12.05;100.00
64340;BME280;63709;53.258;-8.814;2024-02-26T10:31:04;102419.63;;;12.07;100.00
64340;BME280;63709;53.258;-8.814;2024-02-26T10:33:29;102414.09;;;12.10;100.00
64340;BME280;63709;53.258;-8.814;2024-02-26T10:35:55;102427.50;;;12.10;100.00
64340;BME280;63709;53.258;-8.814;2024-02-26T10:38:20;102426.00;;;12.04;100.00
64340;BME280;63709;53.258;-8.814;2024-02-26T10:40:48;102446.81;;;11.99;100.00
64340;BME280;63709;53.258;-8.814;2024-02-26T10:43:14;102446.94;;;12.14;100.00
64340;BME280;63709;53.258;-8.814;2024-02-26T10:45:41;102438.28;;;12.24;100.00
64340;BME280;63709;53.258;-8.814;2024-02-26T10:48:14;102431.44;;;12.34;100.00
64340;BME280;63709;53.258;-8.814;2024-02-26T10:50:40;102438.66;;;12.50;100.00
64340;BME280;63709;53.258;-8.814;2024-02-26T10:53:23;102446.13;;;12.59;100.00
64340;BME280;63709;53.258;-8.814;2024-02-26T10:56:03;102447.19;;;12.87;100.00
64340;BME280;63709;53.258;-8.814;2024-02-26T10:58:29;102444.22;;;12.77;100.00
64340;BME280;63709;53.258;-8.814;2024-02-26T11:00:56;102430.69;;;12.94;100.00
64340;BME280;63709;53.258;-8.814;2024-02-26T11:03:21;102447.69;;;13.09;100.00
64340;BME280;63709;53.258;-8.814;2024-02-26T11:05:50;102449.22;;;13.13;100.00
64340;BME280;63709;53.258;-8.814;2024-02-26T11:08:19;102449.81;;;13.18;100.00
64340;BME280;63709;53.258;-8.814;2024-02-26T11:10:48;102446.41;;;13.30;100.00
64340;BME280;63709;53.258;-8.814;2024-02-26T11:13:16;102456.50;;;13.41;100.00
64340;BME280;63709;53.258;-8.814;2024-02-26T11:15:43;102458.81;;;13.47;100.00
64340;BME280;63709;53.258;-8.814;2024-02-26T11:18:09;102470.78;;;13.42;100.00
64340;BME280;63709;53.258;-8.814;2024-02-26T11:20:38;102473.59;;;13.54;100.00
64340;BME280;63709;53.258;-8.814;2024-02-26T11:23:04;102470.94;;;13.83;100.00
64340;BME280;63709;53.258;-8.814;2024-02-26T11:25:30;102470.72;;;13.86;100.00
64340;BME280;63709;53.258;-8.814;2024-02-26T11:27:58;102471.97;;;13.80;100.00
64340;BME280;63709;53.258;-8.814;2024-02-26T11:30:27;102480.13;;;13.93;100.00
64340;BME280;63709;53.258;-8.814;2024-02-26T11:32:55;102479.84;;;13.98;100.00
64340;BME280;63709;53.258;-8.814;2024-02-26T11:35:20;102485.13;;;14.14;100.00
64340;BME280;63709;53.258;-8.814;2024-02-26T11:37:56;102478.28;;;14.37;97.30
64340;BME280;63709;53.258;-8.814;2024-02-26T11:40:24;102479.44;;;14.18;92.91
64340;BME280;63709;53.258;-8.814;2024-02-26T11:42:50;102487.91;;;14.68;96.26
64340;BME280;63709;53.258;-8.814;2024-02-26T11:48:02;102490.84;;;14.50;88.39
64340;BME280;63709;53.258;-8.814;2024-02-26T11:50:40;102493.00;;;14.72;89.44
64340;BME280;63709;53.258;-8.814;2024-02-26T11:58:35;102481.09;;;14.76;87.00
64340;BME280;63709;53.258;-8.814;2024-02-26T12:01:00;102483.63;;;15.05;88.54
64340;BME280;63709;53.258;-8.814;2024-02-26T12:03:27;102481.31;;;14.86;85.22
64340;BME280;63709;53.258;-8.814;2024-02-26T12:05:53;102481.59;;;14.69;83.76
64340;BME280;63709;53.258;-8.814;2024-02-26T12:08:19;102483.91;;;14.88;85.65
64340;BME280;63709;53.258;-8.814;2024-02-26T12:10:46;102486.13;;;14.54;82.51
64340;BME280;63709;53.258;-8.814;2024-02-26T12:13:14;102491.41;;;14.56;81.47
64340;BME280;63709;53.258;-8.814;2024-02-26T12:18:09;102490.56;;;14.26;80.67
64340;BME280;63709;53.258;-8.814;2024-02-26T12:20:37;102481.47;;;13.86;80.90
64340;BME280;63709;53.258;-8.814;2024-02-26T12:23:03;102474.19;;;13.88;79.98
64340;BME280;63709;53.258;-8.814;2024-02-26T12:25:31;102470.03;;;14.54;82.70
64340;BME280;63709;53.258;-8.814;2024-02-26T12:27:57;102468.53;;;14.48;79.69
64340;BME280;63709;53.258;-8.814;2024-02-26T12:30:23;102463.69;;;14.26;76.05
64340;BME280;63709;53.258;-8.814;2024-02-26T12:32:50;102459.97;;;14.70;80.41
64340;BME280;63709;53.258;-8.814;2024-02-26T12:35:16;102463.72;;;14.68;77.76
64340;BME280;63709;53.258;-8.814;2024-02-26T12:37:42;102463.94;;;14.65;77.22
64340;BME280;63709;53.258;-8.814;2024-02-26T12:40:08;102468.03;;;14.70;78.42
64340;BME280;63709;53.258;-8.814;2024-02-26T12:42:34;102464.22;;;14.46;81.29